createdAt,value
2022-08-30T00:01:33.944Z,17.60
2022-08-30T00:04:01.992Z,17.57
2022-08-30T00:06:30.445Z,17.58
2022-08-30T00:08:57.282Z,17.55
2022-08-30T00:11:26.856Z,17.55
2022-08-30T00:13:55.207Z,17.55
2022-08-30T00:16:23.650Z,17.55
2022-08-30T00:18:50.992Z,17.55
2022-08-30T00:21:21.341Z,17.56
2022-08-30T00:23:48.229Z,17.54
2022-08-30T00:26:14.890Z,17.53
2022-08-30T00:28:41.589Z,17.49
2022-08-30T00:31:08.723Z,17.49
2022-08-30T00:33:38.997Z,17.47
2022-08-30T00:36:07.770Z,17.46
2022-08-30T00:38:34.344Z,17.43
2022-08-30T00:41:01.550Z,17.40
2022-08-30T00:43:32.597Z,17.40
2022-08-30T00:45:59.246Z,17.34
2022-08-30T00:48:26.149Z,17.31
2022-08-30T00:51:00.926Z,17.30
2022-08-30T00:53:34.655Z,17.27
2022-08-30T00:56:02.372Z,17.24
2022-08-30T00:58:33.840Z,17.24
2022-08-30T01:01:01.806Z,17.22
2022-08-30T01:03:36.295Z,17.18
2022-08-30T01:06:04.543Z,17.16
2022-08-30T01:08:31.565Z,17.13
2022-08-30T01:11:07.962Z,17.14
2022-08-30T01:13:39.034Z,17.15
2022-08-30T01:16:06.160Z,17.22
2022-08-30T01:18:34.584Z,17.17
2022-08-30T01:21:15.230Z,17.17
2022-08-30T01:23:47.776Z,17.16
2022-08-30T01:26:17.509Z,17.10
2022-08-30T01:28:54.341Z,17.07
2022-08-30T01:31:24.151Z,16.98
2022-08-30T01:33:51.409Z,16.92
2022-08-30T01:36:19.729Z,16.88
2022-08-30T01:38:49.922Z,16.79
2022-08-30T01:41:26.448Z,16.77
2022-08-30T01:43:56.682Z,16.78
2022-08-30T01:46:26.907Z,16.77
2022-08-30T01:48:58.449Z,16.71
2022-08-30T01:51:27.658Z,16.67
2022-08-30T01:53:55.045Z,16.66
2022-08-30T01:56:22.361Z,16.62
2022-08-30T01:58:49.986Z,16.62
2022-08-30T02:01:20.018Z,16.59
2022-08-30T02:03:49.410Z,16.60
2022-08-30T02:06:19.926Z,16.53
2022-08-30T02:08:47.255Z,16.52
2022-08-30T02:11:14.574Z,16.52
2022-08-30T02:13:43.145Z,16.50
2022-08-30T02:16:12.950Z,16.53
2022-08-30T02:18:52.127Z,16.53
2022-08-30T02:21:20.583Z,16.50
2022-08-30T02:23:47.187Z,16.47
2022-08-30T02:26:20.853Z,16.46
2022-08-30T02:28:49.701Z,16.41
2022-08-30T02:31:20.842Z,16.39
2022-08-30T02:33:50.337Z,16.34
2022-08-30T02:36:18.105Z,16.29
2022-08-30T02:38:45.161Z,16.27
2022-08-30T02:41:11.957Z,16.28
2022-08-30T02:43:38.521Z,16.33
2022-08-30T02:46:05.454Z,16.35
2022-08-30T02:48:37.551Z,16.38
2022-08-30T02:51:07.125Z,16.39
2022-08-30T02:53:37.185Z,16.37
2022-08-30T02:56:04.768Z,16.37
2022-08-30T02:58:31.779Z,16.39
2022-08-30T03:00:58.451Z,16.39
2022-08-30T03:03:25.684Z,16.37
2022-08-30T03:05:52.280Z,16.38
2022-08-30T03:08:18.886Z,16.37
2022-08-30T03:10:47.828Z,16.32
2022-08-30T03:13:14.654Z,16.28
2022-08-30T03:15:41.325Z,16.27
2022-08-30T03:18:08.389Z,16.19
2022-08-30T03:20:39.453Z,16.07
2022-08-30T03:23:06.968Z,15.99
2022-08-30T03:25:34.134Z,15.90
2022-08-30T03:28:01.672Z,15.84
2022-08-30T03:30:28.632Z,15.80
2022-08-30T03:32:55.437Z,15.85
2022-08-30T03:35:22.193Z,15.86
2022-08-30T03:37:49.348Z,15.92
2022-08-30T03:40:23.281Z,15.93
2022-08-30T03:42:53.913Z,15.92
2022-08-30T03:45:21.124Z,15.95
2022-08-30T03:47:55.356Z,15.97
2022-08-30T03:50:23.347Z,16.09
2022-08-30T03:52:51.032Z,16.05
2022-08-30T03:55:17.634Z,16.05
2022-08-30T03:57:44.199Z,16.04
2022-08-30T04:00:14.004Z,16.04
2022-08-30T04:02:43.662Z,16.02
2022-08-30T04:05:11.072Z,16.00
2022-08-30T04:07:38.235Z,15.92
2022-08-30T04:10:07.389Z,15.76
2022-08-30T04:12:34.252Z,15.61
2022-08-30T04:15:00.829Z,15.48
2022-08-30T04:17:27.814Z,15.41
2022-08-30T04:19:54.457Z,15.34
2022-08-30T04:22:22.046Z,15.32
2022-08-30T04:24:50.489Z,15.28
2022-08-30T04:27:20.290Z,15.23
2022-08-30T04:29:49.116Z,15.21
2022-08-30T04:32:18.513Z,15.16
2022-08-30T04:34:45.373Z,15.10
2022-08-30T04:37:11.917Z,15.04
2022-08-30T04:39:43.401Z,15.04
2022-08-30T04:42:10.825Z,15.05
2022-08-30T04:44:37.540Z,15.05
2022-08-30T04:47:04.311Z,15.09
2022-08-30T04:49:31.469Z,15.12
2022-08-30T04:51:58.455Z,15.15
2022-08-30T04:54:26.761Z,15.17
2022-08-30T04:56:53.897Z,15.21
2022-08-30T04:59:24.307Z,15.23
2022-08-30T05:01:52.629Z,15.30
2022-08-30T05:04:19.232Z,15.37
2022-08-30T05:06:45.840Z,15.47
2022-08-30T05:09:15.398Z,15.56
2022-08-30T05:11:43.409Z,15.68
2022-08-30T05:14:10.810Z,15.88
2022-08-30T05:16:37.560Z,16.15
2022-08-30T05:19:04.350Z,16.32
2022-08-30T05:21:30.948Z,16.64
2022-08-30T05:24:00.516Z,16.83
2022-08-30T05:26:32.416Z,16.93
2022-08-30T05:28:59.724Z,17.00
2022-08-30T05:31:34.689Z,17.14
2022-08-30T05:36:57.596Z,17.33
2022-08-30T05:39:26.885Z,17.53
2022-08-30T05:41:57.525Z,17.92
2022-08-30T05:44:25.886Z,18.22
2022-08-30T05:46:52.631Z,18.36
2022-08-30T05:49:30.804Z,18.69
2022-08-30T05:51:57.353Z,18.81
2022-08-30T05:54:23.954Z,18.95
2022-08-30T05:56:54.938Z,19.08
2022-08-30T05:59:21.718Z,19.23
2022-08-30T06:01:48.651Z,19.22
2022-08-30T06:04:15.719Z,19.39
2022-08-30T06:06:44.217Z,19.72
2022-08-30T06:09:13.368Z,20.10
2022-08-30T06:11:42.451Z,20.34
2022-08-30T06:14:09.258Z,20.87
2022-08-30T06:16:39.006Z,21.28
2022-08-30T06:19:08.742Z,21.54
2022-08-30T06:21:50.685Z,21.61
2022-08-30T06:24:17.757Z,22.14
2022-08-30T06:26:47.269Z,22.76
2022-08-30T06:29:18.180Z,22.93
2022-08-30T06:31:45.571Z,22.94
2022-08-30T06:34:16.321Z,22.98
2022-08-30T06:36:42.899Z,23.00
2022-08-30T06:39:10.080Z,23.18
2022-08-30T06:41:39.152Z,23.37
2022-08-30T06:44:06.838Z,23.60
2022-08-30T06:46:38.652Z,23.68
2022-08-30T06:49:06.791Z,23.82
2022-08-30T06:51:37.067Z,23.87
2022-08-30T06:54:05.611Z,23.83
2022-08-30T06:56:57.690Z,24.26
2022-08-30T06:59:34.103Z,24.03
2022-08-30T07:02:00.760Z,23.77
2022-08-30T07:04:27.413Z,23.83
2022-08-30T07:06:55.773Z,24.03
2022-08-30T07:09:22.898Z,24.51
2022-08-30T07:11:52.462Z,24.96
2022-08-30T07:14:20.633Z,25.13
2022-08-30T07:16:47.294Z,25.36
2022-08-30T07:19:21.069Z,25.44
2022-08-30T07:21:49.402Z,25.67
2022-08-30T07:24:16.448Z,25.07
2022-08-30T07:26:48.954Z,24.66
2022-08-30T07:29:18.614Z,24.63
2022-08-30T07:31:45.232Z,24.63
2022-08-30T07:34:11.933Z,24.69
2022-08-30T07:36:39.146Z,24.84
2022-08-30T07:39:07.235Z,25.19
2022-08-30T07:41:38.776Z,25.94
2022-08-30T07:44:15.397Z,25.88
2022-08-30T07:46:42.864Z,26.29
2022-08-30T07:49:11.880Z,26.11
2022-08-30T07:51:45.165Z,26.08
2022-08-30T07:54:11.809Z,25.96
2022-08-30T07:56:38.830Z,25.63
2022-08-30T07:59:05.676Z,25.37
2022-08-30T08:01:32.612Z,25.22
2022-08-30T08:04:02.756Z,25.37
2022-08-30T08:06:34.675Z,25.89
2022-08-30T08:09:02.438Z,26.01
2022-08-30T08:11:33.960Z,25.99
2022-08-30T08:14:01.807Z,26.54
2022-08-30T08:16:31.684Z,26.83
2022-08-30T08:19:00.563Z,26.34
2022-08-30T08:21:27.753Z,26.26
2022-08-30T08:23:54.529Z,26.50
2022-08-30T08:26:23.581Z,26.59
2022-08-30T08:28:50.469Z,26.27
2022-08-30T08:31:28.892Z,26.07
2022-08-30T08:36:38.839Z,25.46
2022-08-30T08:39:07.721Z,25.86
2022-08-30T08:41:49.540Z,26.45
2022-08-30T08:44:23.111Z,26.68
2022-08-30T08:47:13.799Z,27.41
2022-08-30T08:49:44.965Z,27.40
2022-08-30T08:52:42.789Z,27.19
2022-08-30T08:55:15.886Z,26.68
2022-08-30T08:57:42.936Z,26.95
2022-08-30T09:00:14.676Z,27.00
2022-08-30T09:02:57.616Z,26.69
2022-08-30T09:05:29.316Z,26.73
2022-08-30T09:08:17.739Z,27.13
2022-08-30T09:10:54.391Z,27.45
2022-08-30T09:13:24.837Z,27.50
2022-08-30T09:15:55.166Z,27.29
2022-08-30T09:18:45.676Z,27.51
2022-08-30T09:21:13.819Z,27.61
2022-08-30T09:23:51.650Z,28.04
2022-08-30T09:26:30.224Z,29.11
2022-08-30T09:28:58.617Z,29.07
2022-08-30T09:31:28.443Z,29.94
2022-08-30T09:34:03.711Z,29.64
2022-08-30T09:36:39.742Z,29.95
2022-08-30T09:39:15.550Z,29.94
2022-08-30T09:41:45.878Z,29.74
2022-08-30T09:44:19.358Z,29.40
2022-08-30T09:46:50.824Z,29.53
2022-08-30T09:49:43.717Z,30.10
2022-08-30T09:52:35.112Z,29.98
2022-08-30T09:55:53.421Z,30.13
2022-08-30T09:58:31.834Z,29.94
2022-08-30T10:01:22.909Z,29.81
2022-08-30T10:04:30.855Z,29.33
2022-08-30T10:07:14.202Z,29.28
2022-08-30T10:09:59.586Z,29.27
2022-08-30T10:12:46.391Z,29.03
2022-08-30T10:15:22.160Z,28.57
2022-08-30T10:18:03.601Z,28.65
2022-08-30T10:20:32.952Z,29.50
2022-08-30T10:23:11.703Z,29.54
2022-08-30T10:25:54.381Z,29.25
2022-08-30T10:28:39.510Z,29.65
2022-08-30T10:31:12.941Z,30.12
2022-08-30T10:33:47.514Z,30.45
2022-08-30T10:36:16.901Z,30.64
2022-08-30T10:38:55.285Z,30.86
2022-08-30T10:41:28.943Z,31.47
2022-08-30T10:44:08.088Z,30.95
2022-08-30T10:47:01.567Z,30.77
2022-08-30T10:49:36.734Z,31.50
2022-08-30T10:52:31.147Z,31.70
2022-08-30T10:55:06.426Z,32.10
2022-08-30T10:57:33.011Z,31.58
2022-08-30T11:00:05.747Z,31.31
2022-08-30T11:02:43.186Z,31.90
2022-08-30T11:05:09.977Z,31.51
2022-08-30T11:08:00.522Z,30.81
2022-08-30T11:10:38.231Z,30.49
2022-08-30T11:13:14.683Z,30.43
2022-08-30T11:16:04.983Z,30.32
2022-08-30T11:18:44.403Z,30.13
2022-08-30T11:21:31.747Z,30.23
2022-08-30T11:24:12.115Z,30.33
2022-08-30T11:26:45.565Z,30.60
2022-08-30T11:29:39.097Z,31.01
2022-08-30T11:32:21.499Z,30.74
2022-08-30T11:34:51.219Z,30.60
2022-08-30T11:37:47.289Z,30.74
2022-08-30T11:40:26.195Z,31.31
2022-08-30T11:42:55.588Z,31.66
2022-08-30T11:45:25.215Z,31.38
2022-08-30T11:47:54.480Z,31.14
2022-08-30T11:50:29.199Z,30.54
2022-08-30T11:53:09.610Z,30.23
2022-08-30T11:55:46.150Z,30.78
2022-08-30T11:58:53.353Z,31.27
2022-08-30T12:01:50.971Z,31.89
2022-08-30T12:04:17.665Z,32.01
2022-08-30T12:06:52.404Z,31.86
2022-08-30T12:09:19.022Z,32.13
2022-08-30T12:11:57.056Z,31.86
2022-08-30T12:14:44.762Z,32.08
2022-08-30T12:17:39.070Z,32.17
2022-08-30T12:20:16.874Z,32.54
2022-08-30T12:22:45.810Z,32.45
2022-08-30T12:25:25.524Z,32.46
2022-08-30T12:28:07.781Z,32.12
2022-08-30T12:30:38.872Z,32.38
2022-08-30T12:33:06.339Z,32.35
2022-08-30T12:35:34.012Z,32.65
2022-08-30T12:38:08.791Z,32.79
2022-08-30T12:40:35.673Z,32.30
2022-08-30T12:43:06.224Z,31.91
2022-08-30T12:45:41.960Z,31.91
2022-08-30T12:48:11.504Z,32.09
2022-08-30T12:50:55.386Z,31.79
2022-08-30T12:53:27.893Z,31.78
2022-08-30T12:56:04.573Z,31.34
2022-08-30T12:58:40.255Z,31.15
2022-08-30T13:01:22.592Z,31.21
2022-08-30T13:04:20.980Z,31.26
2022-08-30T13:07:01.571Z,31.45
2022-08-30T13:09:35.103Z,31.28
2022-08-30T13:12:09.944Z,31.09
2022-08-30T13:14:43.599Z,30.83
2022-08-30T13:17:23.837Z,30.77
2022-08-30T13:20:20.955Z,30.75
2022-08-30T13:23:07.723Z,30.60
2022-08-30T13:25:38.310Z,30.41
2022-08-30T13:28:07.033Z,30.53
2022-08-30T13:30:36.430Z,30.60
2022-08-30T13:33:03.300Z,30.39
2022-08-30T13:35:31.303Z,30.31
2022-08-30T13:38:00.030Z,29.96
2022-08-30T13:40:28.958Z,29.56
2022-08-30T13:42:56.603Z,29.56
2022-08-30T13:45:43.295Z,29.34
2022-08-30T13:48:11.372Z,29.17
2022-08-30T13:50:38.868Z,29.20
2022-08-30T13:53:05.860Z,29.12
2022-08-30T13:55:33.671Z,29.07
2022-08-30T13:58:00.443Z,28.99
2022-08-30T14:00:27.534Z,29.03
2022-08-30T14:02:57.569Z,29.10
2022-08-30T14:08:48.148Z,29.05
2022-08-30T14:11:19.346Z,29.08
2022-08-30T14:16:38.062Z,29.03
2022-08-30T14:19:08.282Z,28.98
2022-08-30T14:21:36.013Z,28.90
2022-08-30T14:24:04.860Z,28.85
2022-08-30T14:26:36.139Z,28.87
2022-08-30T14:29:08.903Z,28.66
2022-08-30T14:31:38.668Z,28.55
2022-08-30T14:34:09.278Z,28.44
2022-08-30T14:36:42.553Z,28.36
2022-08-30T14:39:11.526Z,28.16
2022-08-30T14:41:44.597Z,28.04
2022-08-30T14:44:13.295Z,27.97
2022-08-30T14:46:40.369Z,27.89
2022-08-30T14:49:10.312Z,27.92
2022-08-30T14:51:38.549Z,27.85
2022-08-30T14:57:03.543Z,27.78
2022-08-30T14:59:30.312Z,27.78
2022-08-30T15:01:56.972Z,27.79
2022-08-30T15:04:25.589Z,27.83
2022-08-30T15:06:52.526Z,27.83
2022-08-30T15:09:23.830Z,27.90
2022-08-30T15:11:58.633Z,27.91
2022-08-30T15:14:29.761Z,27.89
2022-08-30T15:17:00.442Z,27.93
2022-08-30T15:19:27.367Z,27.97
2022-08-30T15:22:00.119Z,28.01
2022-08-30T15:24:29.736Z,28.09
2022-08-30T15:26:59.861Z,28.02
2022-08-30T15:29:27.618Z,27.94
2022-08-30T15:31:59.525Z,27.94
2022-08-30T15:34:28.155Z,27.92
2022-08-30T15:36:55.775Z,27.97
2022-08-30T15:39:22.423Z,27.99
2022-08-30T15:41:55.697Z,27.93
2022-08-30T15:44:27.357Z,27.93
2022-08-30T15:46:53.990Z,27.92
2022-08-30T15:49:24.773Z,27.98
2022-08-30T15:51:54.209Z,27.99
2022-08-30T15:54:23.082Z,27.93
2022-08-30T15:56:52.657Z,27.89
2022-08-30T15:59:19.939Z,27.79
2022-08-30T16:01:48.996Z,27.76
2022-08-30T16:04:18.471Z,27.77
2022-08-30T16:06:47.896Z,27.71
2022-08-30T16:09:14.543Z,27.67
2022-08-30T16:11:41.807Z,27.66
2022-08-30T16:14:09.028Z,27.60
2022-08-30T16:16:37.744Z,27.54
2022-08-30T16:19:07.139Z,27.51
2022-08-30T16:21:37.086Z,27.48
2022-08-30T16:24:10.524Z,27.51
2022-08-30T16:26:40.881Z,27.46
2022-08-30T16:29:10.527Z,27.48
2022-08-30T16:31:37.543Z,27.45
2022-08-30T16:34:06.296Z,27.38
2022-08-30T16:36:35.801Z,27.28
2022-08-30T16:39:04.882Z,27.18
2022-08-30T16:41:35.554Z,27.12
2022-08-30T16:44:07.021Z,27.02
2022-08-30T16:46:35.907Z,27.00
2022-08-30T16:49:04.741Z,26.89
2022-08-30T16:51:33.625Z,26.85
2022-08-30T16:54:03.946Z,26.83
2022-08-30T16:56:32.608Z,26.74
2022-08-30T16:59:03.027Z,26.70
2022-08-30T17:01:41.786Z,26.60
2022-08-30T17:04:10.344Z,26.49
2022-08-30T17:06:37.263Z,26.37
2022-08-30T17:09:07.330Z,26.29
2022-08-30T17:11:35.854Z,26.23
2022-08-30T17:14:02.661Z,26.17
2022-08-30T17:16:31.790Z,26.12
2022-08-30T17:19:00.849Z,26.04
2022-08-30T17:21:51.343Z,25.95
2022-08-30T17:24:17.952Z,25.89
2022-08-30T17:26:45.166Z,25.84
2022-08-30T17:29:13.503Z,25.79
2022-08-30T17:31:43.019Z,25.68
2022-08-30T17:34:09.680Z,25.62
2022-08-30T17:36:47.055Z,25.46
2022-08-30T17:39:14.607Z,25.35
2022-08-30T17:41:48.205Z,25.17
2022-08-30T17:44:26.020Z,24.96
2022-08-30T17:46:53.186Z,24.72
2022-08-30T17:49:19.803Z,24.53
2022-08-30T17:51:47.701Z,24.40
2022-08-30T17:54:17.743Z,24.20
2022-08-30T17:56:44.570Z,24.02
2022-08-30T17:59:12.727Z,23.91
2022-08-30T18:01:41.815Z,23.78
2022-08-30T18:04:09.678Z,23.59
2022-08-30T18:06:41.729Z,23.46
2022-08-30T18:09:09.971Z,23.32
2022-08-30T18:11:39.747Z,23.20
2022-08-30T18:14:10.865Z,23.09
2022-08-30T18:16:53.809Z,23.01
2022-08-30T18:19:27.360Z,22.94
2022-08-30T18:21:54.227Z,22.87
2022-08-30T18:24:21.605Z,22.79
2022-08-30T18:26:52.980Z,22.65
2022-08-30T18:29:29.452Z,22.58
2022-08-30T18:32:09.041Z,22.47
2022-08-30T18:34:36.021Z,22.44
2022-08-30T18:37:02.771Z,22.37
2022-08-30T18:39:34.318Z,22.33
2022-08-30T18:42:01.749Z,22.31
2022-08-30T18:44:33.461Z,22.25
2022-08-30T18:47:01.543Z,22.19
2022-08-30T18:49:32.169Z,22.16
2022-08-30T18:51:58.880Z,22.11
2022-08-30T18:54:27.249Z,22.02
2022-08-30T18:56:54.522Z,21.89
2022-08-30T18:59:21.453Z,21.76
2022-08-30T19:01:49.675Z,21.66
2022-08-30T19:04:22.355Z,21.56
2022-08-30T19:06:57.119Z,21.51
2022-08-30T19:09:24.005Z,21.42
2022-08-30T19:11:53.863Z,21.17
2022-08-30T19:14:22.140Z,20.94
2022-08-30T19:16:48.827Z,20.75
2022-08-30T19:19:15.616Z,20.64
2022-08-30T19:21:42.290Z,20.49
2022-08-30T19:24:09.289Z,20.25
2022-08-30T19:26:40.639Z,20.00
2022-08-30T19:29:09.214Z,19.85
2022-08-30T19:31:37.357Z,19.69
2022-08-30T19:34:05.836Z,19.63
2022-08-30T19:36:32.395Z,19.49
2022-08-30T19:39:02.567Z,19.30
2022-08-30T19:41:29.662Z,19.19
2022-08-30T19:44:04.528Z,19.05
2022-08-30T19:46:32.350Z,19.06
2022-08-30T19:49:01.132Z,19.07
2022-08-30T19:51:29.589Z,19.03
2022-08-30T19:53:59.064Z,19.00
2022-08-30T19:56:26.262Z,18.88
2022-08-30T19:58:54.707Z,18.68
2022-08-30T20:01:33.133Z,18.51
2022-08-30T20:04:06.342Z,18.37
2022-08-30T20:06:33.507Z,18.24
2022-08-30T20:09:04.986Z,18.15
2022-08-30T20:11:33.635Z,18.11
2022-08-30T20:14:00.255Z,17.98
2022-08-30T20:16:33.136Z,17.93
2022-08-30T20:19:05.612Z,17.87
2022-08-30T20:21:37.005Z,17.80
2022-08-30T20:24:04.579Z,17.76
2022-08-30T20:26:36.547Z,17.75
2022-08-30T20:29:04.240Z,17.73
2022-08-30T20:31:31.666Z,17.69
2022-08-30T20:33:58.446Z,17.67
2022-08-30T20:36:25.266Z,17.67
2022-08-30T20:38:51.833Z,17.65
2022-08-30T20:41:21.656Z,17.64
2022-08-30T20:43:48.914Z,17.61
2022-08-30T20:46:18.493Z,17.61
2022-08-30T20:48:48.554Z,17.61
2022-08-30T20:51:19.237Z,17.60
2022-08-30T20:53:46.388Z,17.57
2022-08-30T20:56:17.377Z,17.52
2022-08-30T20:58:44.904Z,17.49
2022-08-30T21:01:13.096Z,17.44
2022-08-30T21:03:42.808Z,17.41
2022-08-30T21:06:11.716Z,17.40
2022-08-30T21:08:39.568Z,17.42
2022-08-30T21:11:07.025Z,17.39
2022-08-30T21:13:33.810Z,17.29
2022-08-30T21:16:03.398Z,17.27
2022-08-30T21:18:34.716Z,17.23
2022-08-30T21:21:14.664Z,17.18
2022-08-30T21:23:42.848Z,17.11
2022-08-30T21:26:10.583Z,17.07
2022-08-30T21:28:38.796Z,17.06
2022-08-30T21:31:13.796Z,16.99
2022-08-30T21:33:42.709Z,16.95
2022-08-30T21:36:29.310Z,16.93
2022-08-30T21:39:00.763Z,16.88
2022-08-30T21:41:28.751Z,16.81
2022-08-30T21:44:04.221Z,16.77
2022-08-30T21:46:32.735Z,16.79
2022-08-30T21:49:01.662Z,16.76
2022-08-30T21:51:33.433Z,16.77
2022-08-30T21:54:02.364Z,16.77
2022-08-30T21:56:29.247Z,16.75
2022-08-30T21:58:56.573Z,16.73
2022-08-30T22:01:26.194Z,16.75
2022-08-30T22:03:56.452Z,16.78
2022-08-30T22:06:31.002Z,16.74
2022-08-30T22:08:58.938Z,16.76
2022-08-30T22:11:26.733Z,16.75
2022-08-30T22:13:57.145Z,16.77
2022-08-30T22:16:25.577Z,16.75
2022-08-30T22:18:52.809Z,16.76
2022-08-30T22:21:23.225Z,16.74
2022-08-30T22:23:50.461Z,16.78
2022-08-30T22:26:19.128Z,16.80
2022-08-30T22:28:47.518Z,16.79
2022-08-30T22:31:15.576Z,16.82
2022-08-30T22:33:43.021Z,16.85
2022-08-30T22:36:17.520Z,16.89
2022-08-30T22:38:44.179Z,16.90
2022-08-30T22:41:13.043Z,16.89
2022-08-30T22:43:40.376Z,16.90
2022-08-30T22:46:07.190Z,16.91
2022-08-30T22:48:39.382Z,16.89
2022-08-30T22:51:08.554Z,16.89
2022-08-30T22:53:35.756Z,16.91
2022-08-30T22:56:14.800Z,16.91
2022-08-30T22:58:44.299Z,16.91
2022-08-30T23:01:26.881Z,16.92
2022-08-30T23:03:56.046Z,16.93
2022-08-30T23:06:23.819Z,16.92
2022-08-30T23:08:54.878Z,16.92
2022-08-30T23:11:21.826Z,16.93
2022-08-30T23:13:48.650Z,16.94
2022-08-30T23:16:22.436Z,16.94
2022-08-30T23:18:49.209Z,16.96
2022-08-30T23:21:21.589Z,16.94
2022-08-30T23:24:10.231Z,16.94
2022-08-30T23:26:56.515Z,16.92
2022-08-30T23:29:44.369Z,16.88
2022-08-30T23:32:32.139Z,16.88
2022-08-30T23:35:17.915Z,16.85
2022-08-30T23:38:05.549Z,16.84
2022-08-30T23:40:52.831Z,16.84
2022-08-30T23:43:38.474Z,16.80
2022-08-30T23:46:27.415Z,16.80
2022-08-30T23:49:12.283Z,16.77
2022-08-30T23:51:59.772Z,16.77
2022-08-30T23:54:44.650Z,16.74
2022-08-30T23:57:35.419Z,16.76
